Skip Navigation Links
NOAA logo - Click to go to the NOAA homepage
NOAA's National Weather Service
Alaska Aviation Weather Unit
  NWS logo - Click to go to the NWS homepage
Left Navbar Graphic     21 AKDT = 05 GMT

   
NOAA is celebrating 200 years of science, service, and stewardship. Visit the NOAA 200th celebration Web site to learn more.
USA.gov is the U.S. Government's official Web portal to all Federal, state and local government Web resources and services.
Facebook
NWS on Facebook

AAWU Home :: Display TAF Add Bookmark
TAF PASC 262320Z 2700/2724 07010KT P6SM OVC010=
METAR PASC 262353Z 07017KT 10SM OVC012 M14/M16 A3007=

METAR PASC 270053Z 07016KT 5SM -SN BR OVC012 M14/M16 A3007=

METAR PASC 270153Z 07019KT 1 1/2SM R05/3000VP6000FT -SN BR OVC013
     M14/M16 A3007=

PASC 270200Z 08018KT 1 1/4SM R05/3000VP6000FT -SN BR OVC015
M14/M17 A3007=

SPECI PASC 270200Z 08018KT 1 1/4SM R05/3000VP6000FT -SN BR OVC015
     M14/M17 A3007 RMK AO2 P0000 T11391167=

PASC 270222Z 08017KT 3SM R05/5000VP6000FT BLSN BR OVC016 M14/M17
A3007=

SPECI PASC 270222Z 08017KT 3SM R05/5000VP6000FT BLSN BR OVC016 M14/M17
     A3007 RMK AO2 SNE15 P0000 T11441167=

PASC 270241Z 07018KT 2SM R05/5000VP6000FT BLSN BR OVC016 M14/M17
A3007=

SPECI PASC 270241Z 07018KT 2SM R05/5000VP6000FT BLSN BR OVC016 M14/M17
     A3007 RMK AO2 SNE15 P0000 T11441167=

PASC 270248Z 07017KT 1 3/4SM R05/3500VP6000FT BLSN BR OVC016
M14/M17 A3007=

SPECI PASC 270248Z 07017KT 1 3/4SM R05/3500VP6000FT BLSN BR OVC016
     M14/M17 A3007 RMK AO2 SNE15 FEW BINOVC P0000=

METAR PASC 270253Z 06018KT 1 1/4SM R05/3500VP6000FT BLSN BR BKN014
     OVC019 M14/M17 A3007=

PASC 270256Z 05016KT 1 1/4SM R05/3500VP6000FT BLSN BR FEW007
OVC016 M14/M17 A3007=

PASC 270256Z 05016KT 1 1/4SM R05/3500VP6000FT BLSN BR FEW007
     OVC016 M14/M17 A3007 RMK AO2 T11441167=

PASC 270305Z 06017KT 2 1/2SM BLSN BR FEW007 OVC016 M14/M17 A3007=

SPECI PASC 270305Z 06017KT 2 1/2SM BLSN BR FEW007 OVC016 M14/M17 A3007
     RMK AO2 VIS 2V3 T11441167=

PASC 270316Z 06018KT 1 3/4SM R05/6000VP6000FT BLSN BR FEW007
BKN013 OVC018 M14/M17 A3007=

SPECI PASC 270316Z 06018KT 1 3/4SM R05/6000VP6000FT BLSN BR FEW007
     BKN013 OVC018 M14/M17 A3007 RMK AO2 VIS 1 1/4V3 T11441167=

PASC 270324Z 07017KT 1 3/4SM R05/4500VP6000FT BLSN BR FEW009
OVC018 M14/M17 A3007=

SPECI PASC 270324Z 07017KT 1 3/4SM R05/4500VP6000FT BLSN BR FEW009
     OVC018 M14/M17 A3007 RMK AO2 VIS 1 1/4V3 T11441172=

PASC 270349Z 06018KT 2SM R05/2400VP6000FT BLSN BR SCT007 OVC014
M14/M17 A3007=

SPECI PASC 270349Z 06018KT 2SM R05/2400VP6000FT BLSN BR SCT007 OVC014
     M14/M17 A3007 RMK AO2=

METAR PASC 270353Z 06017KT 2SM R05/2400VP6000FT BLSN BR BKN007 OVC016
     M14/M17 A3007=

PASC 270400Z 06019KT 1 1/2SM R05/3000VP6000FT BLSN BR BKN007
OVC016 M15/M17 A3007=

SPECI PASC 270400Z 06019KT 1 1/2SM R05/3000VP6000FT BLSN BR BKN007
     OVC016 M15/M17 A3007 RMK AO2 FEW BINOVC T11501172=

PASC 270407Z 07017KT 3SM BLSN BR SCT008 OVC015 M15/M17 A3007=

SPECI PASC 270407Z 07017KT 3SM BLSN BR SCT008 OVC015 M15/M17 A3007 RMK
     AO2 FEW BINOVC T11501172=

PASC 270421Z 07018KT 1 3/4SM R05/4000VP6000FT BLSN BR SCT006
BKN015 M15/M17 A3007=

SPECI PASC 270421Z 07018KT 1 3/4SM R05/4000VP6000FT BLSN BR SCT006
     BKN015 M15/M17 A3007 RMK AO2 FEW BINOVC T11501172=

PASC 270427Z 07018KT 3/4SM R05/2400V5000FT BLSN BR BKN006 OVC015
M15/M17 A3007=

SPECI PASC 270427Z 07018KT 3/4SM R05/2400V5000FT BLSN BR BKN006 OVC015
     M15/M17 A3007 RMK AO2 FEW BINOVC T11501172=

PASC 270444Z 07017KT 2SM R05/3500VP6000FT BLSN BR BKN006 BKN014
M16/M18 A3007=

SPECI PASC 270444Z 07017KT 2SM R05/3500VP6000FT BLSN BR BKN006 BKN014
     M16/M18 A3007 RMK AO2 T11561178=

METAR PASC 270453Z 06016KT 2SM R05/3000VP6000FT BLSN BR SCT006
 BKN010 BKN016 M16/M18 A3007 RMK AO2 SLP184 T11561178=

SPECI PASC 270456Z 06018KT 3SM R05/3500VP6000FT BLSN BR SCT006
 BKN016 M16/M17 A3007 RMK AO2 T11561172=


NOAA's National Weather Service
Alaska Aviation Weather Unit
6930 Sand Lake Road
Anchorage, AK 99502-1845
Disclaimer
Credits
Glossary
Privacy Policy
About Us
Career Opportunities
Contact AAWU Internet Services Site last modified: April, 17th 2012